createdAt,value
2018-12-05T00:00:42.399Z,97.10
2018-12-05T00:03:11.435Z,97.80
2018-12-05T00:05:40.471Z,98.50
2018-12-05T00:08:09.505Z,98.70
2018-12-05T00:10:38.531Z,98.30
2018-12-05T00:13:07.615Z,97.30
2018-12-05T00:15:36.626Z,96.70
2018-12-05T00:18:05.729Z,96.20
2018-12-05T00:20:34.749Z,95.80
2018-12-05T00:23:03.792Z,96.40
2018-12-05T00:25:32.841Z,95.80
2018-12-05T00:28:01.879Z,96.00
2018-12-05T00:30:30.934Z,95.70
2018-12-05T00:32:59.979Z,95.00
2018-12-05T00:35:29.253Z,95.70
2018-12-05T00:37:58.271Z,95.90
2018-12-05T00:40:27.341Z,96.20
2018-12-05T00:42:56.349Z,96.60
2018-12-05T00:45:25.397Z,97.40
2018-12-05T00:47:54.401Z,97.70
2018-12-05T00:50:23.435Z,98.30
2018-12-05T00:52:52.448Z,98.50
2018-12-05T00:55:21.532Z,98.90
2018-12-05T00:57:50.551Z,99.60
2018-12-05T01:00:19.594Z,99.40
2018-12-05T01:02:48.613Z,99.50
2018-12-05T01:05:17.769Z,99.70
2018-12-05T01:07:46.875Z,99.80
2018-12-05T01:10:15.888Z,99.90
2018-12-05T01:12:45.011Z,99.90
2018-12-05T01:15:14.032Z,99.90
2018-12-05T01:17:43.069Z,99.50
2018-12-05T01:20:12.072Z,99.40
2018-12-05T01:22:41.185Z,99.70
2018-12-05T01:25:10.233Z,99.90
2018-12-05T01:27:39.276Z,99.70
2018-12-05T01:30:08.515Z,99.70
2018-12-05T01:32:37.766Z,99.60
2018-12-05T01:35:06.789Z,98.10
2018-12-05T01:37:35.790Z,96.30
2018-12-05T01:40:05.676Z,95.90
2018-12-05T01:42:34.674Z,96.30
2018-12-05T01:45:03.932Z,95.80
2018-12-05T01:47:32.948Z,93.40
2018-12-05T01:50:01.980Z,93.60
2018-12-05T01:52:31.002Z,91.80
2018-12-05T01:55:00.054Z,91.80
2018-12-05T01:57:29.103Z,92.20
2018-12-05T01:59:58.154Z,92.30
2018-12-05T02:02:27.227Z,92.00
2018-12-05T02:04:57.143Z,91.70
2018-12-05T02:07:26.239Z,91.60
2018-12-05T02:09:55.283Z,91.70
2018-12-05T02:12:24.329Z,91.40
2018-12-05T02:14:53.347Z,91.20
2018-12-05T02:17:22.416Z,91.30
2018-12-05T02:19:51.479Z,91.50
2018-12-05T02:22:20.511Z,91.80
2018-12-05T02:24:49.520Z,90.70
2018-12-05T02:27:18.566Z,87.70
2018-12-05T02:30:03.335Z,88.50
2018-12-05T02:32:32.528Z,89.20
2018-12-05T02:35:01.555Z,88.60
2018-12-05T02:37:30.580Z,88.40
2018-12-05T02:39:59.586Z,88.90
2018-12-05T02:42:28.658Z,89.30
2018-12-05T02:44:57.672Z,88.70
2018-12-05T02:47:26.718Z,88.10
2018-12-05T02:49:55.767Z,88.20
2018-12-05T02:52:24.791Z,87.30
2018-12-05T02:54:53.826Z,86.80
2018-12-05T02:57:22.982Z,87.50
2018-12-05T02:59:52.129Z,88.70
2018-12-05T03:02:21.165Z,90.30
2018-12-05T03:04:50.200Z,91.50
2018-12-05T03:07:19.252Z,92.20
2018-12-05T03:09:48.283Z,93.00
2018-12-05T03:12:17.329Z,93.90
2018-12-05T03:14:46.367Z,94.50
2018-12-05T03:17:15.396Z,95.10
2018-12-05T03:19:44.450Z,95.20
2018-12-05T03:22:13.477Z,95.30
2018-12-05T03:24:42.508Z,95.50
2018-12-05T03:27:11.501Z,95.80
2018-12-05T03:29:40.512Z,95.90
2018-12-05T03:32:09.562Z,96.20
2018-12-05T03:34:38.575Z,96.40
2018-12-05T03:37:07.632Z,96.60
2018-12-05T03:39:36.677Z,96.80
2018-12-05T03:42:07.162Z,97.10
2018-12-05T03:44:36.290Z,97.00
2018-12-05T03:47:05.677Z,97.20
2018-12-05T03:49:34.794Z,97.40
2018-12-05T03:52:03.895Z,97.60
2018-12-05T03:54:32.899Z,97.70
2018-12-05T03:57:01.912Z,98.10
2018-12-05T03:59:30.950Z,98.20
2018-12-05T04:01:59.976Z,98.30
2018-12-05T04:04:29.018Z,98.30
2018-12-05T04:06:58.036Z,98.80
2018-12-05T04:09:27.105Z,98.90
2018-12-05T04:11:56.096Z,98.80
2018-12-05T04:14:25.141Z,98.60
2018-12-05T04:16:54.296Z,98.50
2018-12-05T04:19:23.307Z,98.60
2018-12-05T04:21:52.351Z,98.90
2018-12-05T04:24:21.367Z,98.80
2018-12-05T04:26:50.416Z,98.60
2018-12-05T04:29:19.433Z,98.40
2018-12-05T04:31:48.460Z,98.20
2018-12-05T04:34:17.469Z,98.30
2018-12-05T04:36:46.643Z,98.30
2018-12-05T04:39:15.685Z,98.20
2018-12-05T04:41:44.747Z,98.30
2018-12-05T04:44:13.763Z,98.40
2018-12-05T04:46:42.794Z,98.40
2018-12-05T04:49:11.834Z,98.50
2018-12-05T04:51:40.855Z,98.40
2018-12-05T04:54:09.906Z,98.40
2018-12-05T04:56:38.947Z,98.50
2018-12-05T04:59:08.054Z,98.60
2018-12-05T05:01:37.129Z,98.80
2018-12-05T05:04:06.267Z,99.00
2018-12-05T05:06:41.622Z,98.70
2018-12-05T05:09:06.955Z,98.70
2018-12-05T05:11:36.005Z,98.70
2018-12-05T05:14:05.084Z,98.40
2018-12-05T05:16:34.122Z,98.60
2018-12-05T05:19:03.148Z,98.60
2018-12-05T05:21:32.191Z,98.50
2018-12-05T05:24:01.238Z,98.30
2018-12-05T05:26:30.372Z,98.30
2018-12-05T05:28:59.381Z,98.30
2018-12-05T05:31:28.408Z,98.20
2018-12-05T05:33:57.580Z,98.10
2018-12-05T05:36:26.728Z,98.20
2018-12-05T05:38:55.740Z,98.10
2018-12-05T05:41:24.785Z,98.50
2018-12-05T05:43:53.801Z,98.30
2018-12-05T05:46:22.838Z,98.30
2018-12-05T05:48:51.865Z,97.70
2018-12-05T05:51:20.980Z,97.10
2018-12-05T05:53:50.092Z,97.40
2018-12-05T05:56:19.163Z,97.00
2018-12-05T05:58:48.183Z,96.40
2018-12-05T06:01:17.199Z,96.50
2018-12-05T06:03:46.256Z,96.70
2018-12-05T06:06:15.315Z,96.80
2018-12-05T06:08:44.332Z,96.80
2018-12-05T06:11:13.479Z,96.90
2018-12-05T06:13:42.526Z,97.10
2018-12-05T06:16:11.575Z,97.30
2018-12-05T06:18:40.625Z,97.40
2018-12-05T06:21:09.645Z,97.50
2018-12-05T06:23:38.713Z,97.60
2018-12-05T06:26:07.765Z,97.80
2018-12-05T06:28:36.796Z,97.80
2018-12-05T06:31:05.910Z,97.90
2018-12-05T06:33:34.943Z,97.90
2018-12-05T06:36:04.113Z,98.10
2018-12-05T06:38:33.136Z,97.90
2018-12-05T06:41:02.187Z,97.90
2018-12-05T06:43:31.213Z,98.00
2018-12-05T06:46:00.261Z,98.00
2018-12-05T06:48:29.305Z,97.80
2018-12-05T06:50:58.347Z,97.80
2018-12-05T06:53:27.430Z,97.80
2018-12-05T06:55:56.446Z,97.80
2018-12-05T06:58:25.498Z,97.90
2018-12-05T07:00:54.545Z,98.30
2018-12-05T07:03:23.603Z,98.10
2018-12-05T07:05:52.662Z,98.20
2018-12-05T07:08:21.709Z,98.20
2018-12-05T07:10:50.775Z,98.00
2018-12-05T07:13:19.800Z,97.90
2018-12-05T07:15:49.075Z,97.90
2018-12-05T07:18:18.123Z,98.10
2018-12-05T07:20:47.219Z,98.30
2018-12-05T07:23:16.366Z,98.10
2018-12-05T07:25:45.408Z,98.00
2018-12-05T07:28:14.439Z,97.90
2018-12-05T07:30:43.507Z,97.40
2018-12-05T07:33:12.581Z,97.30
2018-12-05T07:35:41.615Z,97.10
2018-12-05T07:38:10.655Z,96.80
2018-12-05T07:40:39.707Z,96.70
2018-12-05T07:43:08.748Z,96.60
2018-12-05T07:45:37.775Z,96.00
2018-12-05T07:48:06.836Z,95.30
2018-12-05T07:50:35.842Z,95.00
2018-12-05T07:53:04.976Z,93.60
2018-12-05T07:55:34.060Z,92.70
2018-12-05T07:58:03.123Z,91.90
2018-12-05T08:00:32.159Z,91.10
2018-12-05T08:03:01.865Z,89.50
2018-12-05T08:05:31.007Z,87.00
2018-12-05T08:08:00.112Z,86.40
2018-12-05T08:10:29.146Z,84.50
2018-12-05T08:12:58.193Z,82.60
2018-12-05T08:15:27.212Z,80.80
2018-12-05T08:17:56.263Z,77.70
2018-12-05T08:20:25.327Z,79.00
2018-12-05T08:22:54.482Z,80.40
2018-12-05T08:25:23.568Z,79.70
2018-12-05T08:27:52.602Z,77.80
2018-12-05T08:30:22.415Z,77.60
2018-12-05T08:32:51.494Z,75.30
2018-12-05T08:35:20.507Z,75.20
2018-12-05T08:37:49.571Z,75.00
2018-12-05T08:40:18.690Z,75.70
2018-12-05T08:42:47.709Z,72.30
2018-12-05T08:45:16.747Z,73.00
2018-12-05T08:47:45.763Z,72.40
2018-12-05T08:50:14.803Z,70.10
2018-12-05T08:52:43.826Z,70.70
2018-12-05T08:55:12.875Z,69.60
2018-12-05T08:57:41.971Z,69.40
2018-12-05T09:00:11.104Z,65.90
2018-12-05T09:02:40.184Z,66.60
2018-12-05T09:05:09.204Z,65.50
2018-12-05T09:07:38.265Z,63.90
2018-12-05T09:10:07.483Z,64.10
2018-12-05T09:12:36.584Z,63.20
2018-12-05T09:15:07.233Z,63.00
2018-12-05T09:17:36.364Z,61.10
2018-12-05T09:20:06.524Z,60.60
2018-12-05T09:22:41.201Z,57.90
2018-12-05T09:25:06.834Z,59.30
2018-12-05T09:27:35.891Z,60.50
2018-12-05T09:30:05.887Z,56.70
2018-12-05T09:32:34.946Z,56.20
2018-12-05T09:35:04.855Z,56.10
2018-12-05T09:37:33.878Z,56.00
2018-12-05T09:40:03.260Z,55.40
2018-12-05T09:42:33.199Z,52.70
2018-12-05T09:45:02.340Z,53.50
2018-12-05T09:47:31.343Z,54.50
2018-12-05T09:50:01.015Z,53.10
2018-12-05T09:52:30.077Z,52.10
2018-12-05T09:54:59.111Z,51.10
2018-12-05T09:57:28.154Z,50.60
2018-12-05T09:59:57.159Z,51.20
2018-12-05T10:02:26.235Z,50.90
2018-12-05T10:04:55.252Z,51.20
2018-12-05T10:07:24.261Z,49.80
2018-12-05T10:09:55.256Z,49.60
2018-12-05T10:12:24.266Z,52.90
2018-12-05T10:14:53.348Z,53.70
2018-12-05T10:17:22.348Z,54.00
2018-12-05T10:19:51.390Z,52.70
2018-12-05T10:22:20.425Z,51.90
2018-12-05T10:24:49.571Z,52.10
2018-12-05T10:27:18.639Z,52.00
2018-12-05T10:29:47.676Z,52.10
2018-12-05T10:32:16.690Z,53.00
2018-12-05T10:34:45.717Z,52.00
2018-12-05T10:37:14.723Z,51.90
2018-12-05T10:39:43.769Z,51.40
2018-12-05T10:42:12.781Z,51.10
2018-12-05T10:44:41.826Z,50.00
2018-12-05T10:47:10.836Z,50.40
2018-12-05T10:49:39.907Z,50.20
2018-12-05T10:52:09.070Z,50.00
2018-12-05T10:54:38.078Z,50.00
2018-12-05T10:57:07.169Z,49.10
2018-12-05T10:59:36.201Z,48.40
2018-12-05T11:05:16.704Z,46.90
2018-12-05T11:07:51.339Z,45.90
2018-12-05T11:10:25.999Z,44.30
2018-12-05T11:13:00.559Z,44.10
2018-12-05T11:15:35.414Z,43.50
2018-12-05T11:18:10.151Z,42.50
2018-12-05T11:20:44.757Z,39.70
2018-12-05T11:26:19.767Z,39.00
2018-12-05T11:28:48.778Z,39.60
2018-12-05T11:31:17.875Z,39.50
2018-12-05T11:33:46.886Z,39.50
2018-12-05T11:36:15.935Z,38.70
2018-12-05T11:38:44.936Z,38.40
2018-12-05T11:41:13.971Z,42.70
2018-12-05T11:43:42.993Z,41.20
2018-12-05T11:46:12.018Z,40.70
2018-12-05T11:48:41.027Z,39.20
2018-12-05T11:51:10.130Z,39.40
2018-12-05T11:53:39.145Z,42.00
2018-12-05T11:56:08.175Z,39.10
2018-12-05T11:58:37.210Z,38.30
2018-12-05T12:01:06.293Z,38.20
2018-12-05T12:03:35.296Z,38.50
2018-12-05T12:06:04.396Z,38.30
2018-12-05T12:08:33.491Z,37.10
2018-12-05T12:11:04.513Z,37.40
2018-12-05T12:13:33.590Z,36.80
2018-12-05T12:16:02.804Z,36.60
2018-12-05T12:18:31.968Z,37.60
2018-12-05T12:21:01.099Z,37.60
2018-12-05T12:23:30.138Z,37.00
2018-12-05T12:25:59.181Z,36.00
2018-12-05T12:28:28.222Z,35.40
2018-12-05T12:30:57.310Z,36.10
2018-12-05T12:33:26.354Z,36.10
2018-12-05T12:35:55.407Z,35.40
2018-12-05T12:38:24.512Z,35.30
2018-12-05T12:40:53.544Z,35.80
2018-12-05T12:43:22.687Z,33.90
2018-12-05T12:45:51.716Z,33.60
2018-12-05T12:48:20.732Z,34.10
2018-12-05T12:50:49.781Z,35.00
2018-12-05T12:53:18.855Z,34.00
2018-12-05T12:55:47.898Z,33.70
2018-12-05T12:58:16.931Z,33.30
2018-12-05T13:00:46.003Z,32.60
2018-12-05T13:03:15.017Z,32.70
2018-12-05T13:05:44.148Z,32.10
2018-12-05T13:08:13.165Z,32.80
2018-12-05T13:10:42.221Z,32.10
2018-12-05T13:13:11.238Z,32.20
2018-12-05T13:15:40.252Z,33.60
2018-12-05T13:18:09.276Z,32.90
2018-12-05T13:20:38.321Z,32.60
2018-12-05T13:23:07.370Z,32.40
2018-12-05T13:25:36.518Z,31.70
2018-12-05T13:28:05.558Z,32.40
2018-12-05T13:30:34.561Z,32.50
2018-12-05T13:33:03.604Z,31.80
2018-12-05T13:35:32.647Z,31.80
2018-12-05T13:38:01.695Z,33.50
2018-12-05T13:40:30.726Z,33.80
2018-12-05T13:42:59.786Z,33.20
2018-12-05T13:45:28.799Z,32.20
2018-12-05T13:47:57.838Z,33.00
2018-12-05T13:50:26.906Z,34.20
2018-12-05T13:52:56.114Z,35.40
2018-12-05T13:55:25.183Z,36.20
2018-12-05T13:57:54.285Z,36.90
2018-12-05T14:00:23.321Z,37.70
2018-12-05T14:02:52.353Z,38.10
2018-12-05T14:05:21.420Z,38.70
2018-12-05T14:07:50.448Z,39.50
2018-12-05T14:10:19.475Z,39.30
2018-12-05T14:12:48.611Z,40.30
2018-12-05T14:15:17.677Z,40.60
2018-12-05T14:17:46.715Z,40.60
2018-12-05T14:20:15.856Z,41.30
2018-12-05T14:22:45.550Z,41.80
2018-12-05T14:25:14.928Z,42.20
2018-12-05T14:27:44.071Z,43.00
2018-12-05T14:30:13.149Z,43.30
2018-12-05T14:32:42.180Z,43.50
2018-12-05T14:35:11.277Z,43.60
2018-12-05T14:37:40.319Z,44.40
2018-12-05T14:40:09.351Z,44.30
2018-12-05T14:42:38.392Z,45.00
2018-12-05T14:45:07.471Z,45.00
2018-12-05T14:47:36.542Z,45.90
2018-12-05T14:50:06.542Z,46.30
2018-12-05T14:52:35.600Z,47.10
2018-12-05T14:55:05.010Z,48.50
2018-12-05T14:57:34.009Z,49.70
2018-12-05T15:00:04.465Z,51.30
2018-12-05T15:02:33.526Z,53.00
2018-12-05T15:05:02.590Z,54.40
2018-12-05T15:07:31.640Z,55.00
2018-12-05T15:10:00.675Z,56.50
2018-12-05T15:12:29.697Z,57.30
2018-12-05T15:14:58.737Z,58.40
2018-12-05T15:17:27.741Z,59.30
2018-12-05T15:19:56.775Z,58.70
2018-12-05T15:22:25.818Z,58.50
2018-12-05T15:24:54.823Z,59.10
2018-12-05T15:27:23.855Z,59.50
2018-12-05T15:29:52.859Z,59.70
2018-12-05T15:32:21.898Z,61.00
2018-12-05T15:34:52.201Z,61.50
2018-12-05T15:37:21.443Z,62.60
2018-12-05T15:39:50.526Z,64.70
2018-12-05T15:42:19.582Z,65.90
2018-12-05T15:44:49.395Z,65.00
2018-12-05T15:47:18.460Z,65.30
2018-12-05T15:49:47.562Z,66.20
2018-12-05T15:52:16.589Z,68.20
2018-12-05T15:54:45.708Z,70.20
2018-12-05T15:57:14.735Z,71.20
2018-12-05T15:59:43.783Z,72.00
2018-12-05T16:02:12.831Z,72.90
2018-12-05T16:04:41.871Z,74.20
2018-12-05T16:07:10.953Z,75.30
2018-12-05T16:09:39.974Z,75.90
2018-12-05T16:12:09.009Z,78.60
2018-12-05T16:14:38.028Z,79.10
2018-12-05T16:17:07.156Z,80.10
2018-12-05T16:19:36.276Z,80.60
2018-12-05T16:22:05.404Z,79.90
2018-12-05T16:24:34.447Z,80.30
2018-12-05T16:27:03.503Z,81.10
2018-12-05T16:29:32.521Z,81.40
2018-12-05T16:32:01.564Z,80.90
2018-12-05T16:34:30.861Z,81.10
2018-12-05T16:36:59.897Z,81.40
2018-12-05T16:39:29.772Z,81.30
2018-12-05T16:41:58.836Z,80.60
2018-12-05T16:44:27.843Z,80.50
2018-12-05T16:46:56.861Z,80.20
2018-12-05T16:49:26.939Z,80.80
2018-12-05T16:51:55.969Z,80.40
2018-12-05T16:54:25.011Z,79.60
2018-12-05T16:56:54.088Z,79.60
2018-12-05T16:59:23.219Z,79.30
2018-12-05T17:01:52.321Z,80.40
2018-12-05T17:04:21.340Z,82.80
2018-12-05T17:06:50.466Z,81.20
2018-12-05T17:09:25.811Z,80.70
2018-12-05T17:11:50.590Z,79.90
2018-12-05T17:14:19.666Z,78.40
2018-12-05T17:16:48.720Z,77.10
2018-12-05T17:19:17.829Z,75.60
2018-12-05T17:21:46.902Z,75.40
2018-12-05T17:24:15.931Z,75.90
2018-12-05T17:26:44.978Z,76.40
2018-12-05T17:29:14.002Z,76.10
2018-12-05T17:31:43.062Z,75.60
2018-12-05T17:34:12.097Z,76.40
2018-12-05T17:36:41.150Z,74.30
2018-12-05T17:39:10.227Z,74.30
2018-12-05T17:41:39.247Z,72.90
2018-12-05T17:44:08.292Z,71.90
2018-12-05T17:46:37.411Z,72.30
2018-12-05T17:49:06.456Z,72.70
2018-12-05T17:51:35.575Z,72.60
2018-12-05T17:54:04.721Z,73.40
2018-12-05T17:56:35.075Z,72.40
2018-12-05T17:59:04.276Z,72.20
2018-12-05T18:01:33.295Z,72.60
2018-12-05T18:04:02.347Z,73.40
2018-12-05T18:06:31.400Z,73.90
2018-12-05T18:09:00.413Z,74.30
2018-12-05T18:11:29.528Z,74.50
2018-12-05T18:13:58.561Z,74.70
2018-12-05T18:16:27.603Z,75.10
2018-12-05T18:18:56.694Z,75.50
2018-12-05T18:21:25.711Z,76.60
2018-12-05T18:23:54.783Z,76.60
2018-12-05T18:26:23.836Z,77.70
2018-12-05T18:28:52.883Z,77.60
2018-12-05T18:31:21.919Z,77.80
2018-12-05T18:33:51.016Z,79.00
2018-12-05T18:36:20.295Z,78.90
2018-12-05T18:38:49.360Z,79.10
2018-12-05T18:41:18.455Z,80.60
2018-12-05T18:43:47.479Z,81.00
2018-12-05T18:46:16.569Z,81.10
2018-12-05T18:48:45.581Z,80.80
2018-12-05T18:51:14.620Z,81.00
2018-12-05T18:53:43.637Z,81.90
2018-12-05T18:56:12.734Z,82.50
2018-12-05T18:58:41.778Z,83.30
2018-12-05T19:01:10.867Z,83.60
2018-12-05T19:03:39.955Z,83.50
2018-12-05T19:06:09.009Z,83.60
2018-12-05T19:08:38.012Z,83.70
2018-12-05T19:11:07.211Z,85.70
2018-12-05T19:13:38.206Z,86.60
2018-12-05T19:16:08.638Z,87.30
2018-12-05T19:18:37.659Z,86.60
2018-12-05T19:21:06.734Z,86.00
2018-12-05T19:23:35.783Z,86.50
2018-12-05T19:26:04.806Z,86.50
2018-12-05T19:28:33.835Z,86.60
2018-12-05T19:31:02.880Z,86.50
2018-12-05T19:33:31.900Z,86.60
2018-12-05T19:36:00.955Z,86.60
2018-12-05T19:38:30.010Z,87.00
2018-12-05T19:40:59.032Z,87.50
2018-12-05T19:43:28.051Z,87.50
2018-12-05T19:45:57.092Z,87.60
2018-12-05T19:48:26.134Z,87.10
2018-12-05T19:50:55.191Z,87.00
2018-12-05T19:53:24.256Z,87.50
2018-12-05T19:55:53.286Z,88.80
2018-12-05T19:58:22.389Z,89.10
2018-12-05T20:00:51.419Z,89.60
2018-12-05T20:03:20.503Z,89.80
2018-12-05T20:05:49.564Z,90.00
2018-12-05T20:08:18.630Z,90.10
2018-12-05T20:10:47.754Z,90.30
2018-12-05T20:13:16.802Z,90.20
2018-12-05T20:15:45.848Z,90.40
2018-12-05T20:18:15.071Z,90.10
2018-12-05T20:20:44.098Z,90.00
2018-12-05T20:23:13.151Z,90.10
2018-12-05T20:25:42.204Z,90.50
2018-12-05T20:28:11.383Z,91.00
2018-12-05T20:30:40.481Z,91.20
2018-12-05T20:33:09.499Z,91.30
2018-12-05T20:35:38.552Z,91.30
2018-12-05T20:38:07.605Z,91.20
2018-12-05T20:40:36.720Z,91.10
2018-12-05T20:43:05.738Z,91.30
2018-12-05T20:45:34.812Z,91.00
2018-12-05T20:48:03.855Z,90.80
2018-12-05T20:50:32.901Z,90.50
2018-12-05T20:53:01.965Z,90.60
2018-12-05T20:55:31.089Z,90.60
2018-12-05T20:58:00.135Z,90.50
2018-12-05T21:00:29.256Z,90.50
2018-12-05T21:02:58.318Z,90.60
2018-12-05T21:05:27.386Z,90.60
2018-12-05T21:07:57.422Z,90.60
2018-12-05T21:10:26.453Z,90.90
2018-12-05T21:12:55.515Z,91.20
2018-12-05T21:15:24.574Z,91.50
2018-12-05T21:17:53.603Z,91.70
2018-12-05T21:20:22.667Z,91.70
2018-12-05T21:22:51.689Z,91.70
2018-12-05T21:25:20.747Z,91.60
2018-12-05T21:27:49.800Z,91.50
2018-12-05T21:30:18.860Z,92.00
2018-12-05T21:32:47.918Z,92.10
2018-12-05T21:35:16.957Z,92.10
2018-12-05T21:37:45.974Z,92.10
2018-12-05T21:40:15.036Z,92.10
2018-12-05T21:42:44.100Z,92.00
2018-12-05T21:45:13.200Z,91.90
2018-12-05T21:47:42.261Z,91.80
2018-12-05T21:50:11.363Z,92.00
2018-12-05T21:52:40.420Z,92.20
2018-12-05T21:55:09.449Z,92.60
2018-12-05T21:57:38.544Z,93.10
2018-12-05T22:00:08.904Z,93.30
2018-12-05T22:02:37.991Z,93.50
2018-12-05T22:05:07.193Z,93.30
2018-12-05T22:07:36.253Z,92.90
2018-12-05T22:10:07.522Z,92.70
2018-12-05T22:12:36.575Z,92.70
2018-12-05T22:15:06.063Z,92.90
2018-12-05T22:17:35.286Z,92.70
2018-12-05T22:20:05.351Z,92.90
2018-12-05T22:22:34.731Z,93.00
2018-12-05T22:25:04.003Z,93.10
2018-12-05T22:27:33.120Z,93.30
2018-12-05T22:30:02.184Z,93.20
2018-12-05T22:32:31.295Z,93.20
2018-12-05T22:35:00.359Z,93.10
2018-12-05T22:37:29.396Z,93.10
2018-12-05T22:39:58.463Z,93.10
2018-12-05T22:42:27.532Z,93.50
2018-12-05T22:44:56.563Z,93.50
2018-12-05T22:47:25.641Z,93.40
2018-12-05T22:49:54.703Z,93.50
2018-12-05T22:52:23.842Z,93.40
2018-12-05T22:54:52.873Z,93.40
2018-12-05T22:57:21.927Z,93.50
2018-12-05T22:59:51.127Z,93.80
2018-12-05T23:02:20.350Z,94.10
2018-12-05T23:04:49.504Z,93.90
2018-12-05T23:07:18.704Z,93.80
2018-12-05T23:09:47.822Z,93.70
2018-12-05T23:12:16.853Z,93.70
2018-12-05T23:14:45.956Z,93.70
2018-12-05T23:17:14.987Z,93.60
2018-12-05T23:19:44.301Z,93.70
2018-12-05T23:22:13.389Z,93.90
2018-12-05T23:24:42.480Z,94.10
2018-12-05T23:27:11.625Z,94.20
2018-12-05T23:29:40.655Z,94.00
2018-12-05T23:32:09.683Z,93.80
2018-12-05T23:34:38.718Z,93.80
2018-12-05T23:37:07.756Z,93.70
2018-12-05T23:39:36.808Z,93.80
2018-12-05T23:42:05.906Z,93.90
2018-12-05T23:44:34.967Z,94.10
2018-12-05T23:47:04.039Z,94.00
2018-12-05T23:49:33.379Z,94.00
2018-12-05T23:52:02.467Z,94.30
2018-12-05T23:54:31.531Z,94.70
2018-12-05T23:57:00.806Z,94.60
2018-12-05T23:59:29.847Z,94.40
